sensor_id;sensor_type;location;lat;lon;timestamp;pressure;altitude;pressure_sealevel;temperature;humidity
12360;BME280;6244;51.460;7.090;2023-06-22T00:02:25;100839.72;;;23.87;48.06
12360;BME280;6244;51.460;7.090;2023-06-22T00:07:22;100864.16;;;23.84;48.44
12360;BME280;6244;51.460;7.090;2023-06-22T00:12:20;100867.44;;;23.70;49.54
12360;BME280;6244;51.460;7.090;2023-06-22T00:17:16;100858.13;;;23.82;49.79
12360;BME280;6244;51.460;7.090;2023-06-22T00:22:13;100860.44;;;23.77;49.73
12360;BME280;6244;51.460;7.090;2023-06-22T00:27:12;100861.78;;;23.81;50.02
12360;BME280;6244;51.460;7.090;2023-06-22T00:32:10;100863.38;;;23.66;50.41
12360;BME280;6244;51.460;7.090;2023-06-22T00:37:06;100854.66;;;23.64;50.42
12360;BME280;6244;51.460;7.090;2023-06-22T00:42:03;100866.13;;;23.74;50.89
12360;BME280;6244;51.460;7.090;2023-06-22T00:47:00;100852.22;;;23.79;50.96
12360;BME280;6244;51.460;7.090;2023-06-22T00:51:58;100842.72;;;23.84;50.80
12360;BME280;6244;51.460;7.090;2023-06-22T00:56:55;100841.72;;;23.85;50.72
12360;BME280;6244;51.460;7.090;2023-06-22T01:01:52;100838.88;;;23.87;50.53
12360;BME280;6244;51.460;7.090;2023-06-22T01:06:55;100831.84;;;23.86;50.99
12360;BME280;6244;51.460;7.090;2023-06-22T01:12:00;100835.00;;;23.81;51.13
12360;BME280;6244;51.460;7.090;2023-06-22T01:16:59;100842.34;;;23.79;51.02
12360;BME280;6244;51.460;7.090;2023-06-22T01:21:58;100831.13;;;23.76;51.61
12360;BME280;6244;51.460;7.090;2023-06-22T01:27:07;100834.13;;;23.72;51.37
12360;BME280;6244;51.460;7.090;2023-06-22T01:32:07;100831.59;;;23.71;51.89
12360;BME280;6244;51.460;7.090;2023-06-22T01:37:06;100828.56;;;23.66;51.58
12360;BME280;6244;51.460;7.090;2023-06-22T01:42:04;100822.00;;;23.60;51.44
12360;BME280;6244;51.460;7.090;2023-06-22T01:47:01;100821.44;;;23.57;52.28
12360;BME280;6244;51.460;7.090;2023-06-22T01:51:59;100809.13;;;23.64;51.90
12360;BME280;6244;51.460;7.090;2023-06-22T01:56:56;100817.66;;;23.67;51.59
12360;BME280;6244;51.460;7.090;2023-06-22T02:01:55;100824.00;;;23.58;52.32
12360;BME280;6244;51.460;7.090;2023-06-22T02:06:56;100829.03;;;23.61;52.24
12360;BME280;6244;51.460;7.090;2023-06-22T02:11:56;100831.22;;;23.66;52.14
12360;BME280;6244;51.460;7.090;2023-06-22T02:16:53;100827.38;;;23.68;52.58
12360;BME280;6244;51.460;7.090;2023-06-22T02:21:54;100829.63;;;23.55;53.58
12360;BME280;6244;51.460;7.090;2023-06-22T02:26:50;100817.03;;;23.22;54.33
12360;BME280;6244;51.460;7.090;2023-06-22T02:31:48;100810.44;;;23.16;54.55
12360;BME280;6244;51.460;7.090;2023-06-22T02:36:45;100800.69;;;23.07;54.83
12360;BME280;6244;51.460;7.090;2023-06-22T02:41:45;100805.66;;;23.02;55.47
12360;BME280;6244;51.460;7.090;2023-06-22T02:46:42;100803.22;;;23.08;55.11
12360;BME280;6244;51.460;7.090;2023-06-22T02:51:42;100801.41;;;23.17;55.04
12360;BME280;6244;51.460;7.090;2023-06-22T02:56:38;100796.59;;;23.21;55.09
12360;BME280;6244;51.460;7.090;2023-06-22T03:01:36;100787.56;;;23.22;55.04
12360;BME280;6244;51.460;7.090;2023-06-22T03:06:35;100785.34;;;23.17;55.06
12360;BME280;6244;51.460;7.090;2023-06-22T03:11:34;100786.16;;;23.09;55.11
12360;BME280;6244;51.460;7.090;2023-06-22T03:16:30;100775.84;;;22.97;55.38
12360;BME280;6244;51.460;7.090;2023-06-22T03:21:28;100769.81;;;22.95;55.14
12360;BME280;6244;51.460;7.090;2023-06-22T03:26:25;100772.75;;;22.83;55.54
12360;BME280;6244;51.460;7.090;2023-06-22T03:31:23;100769.22;;;22.83;55.92
12360;BME280;6244;51.460;7.090;2023-06-22T03:36:20;100764.72;;;22.83;55.94
12360;BME280;6244;51.460;7.090;2023-06-22T03:41:17;100772.94;;;22.72;55.87
12360;BME280;6244;51.460;7.090;2023-06-22T03:46:14;100768.59;;;22.71;56.10
12360;BME280;6244;51.460;7.090;2023-06-22T03:51:12;100755.72;;;22.75;56.25
12360;BME280;6244;51.460;7.090;2023-06-22T03:56:08;100744.19;;;22.74;56.08
12360;BME280;6244;51.460;7.090;2023-06-22T04:01:05;100743.97;;;22.68;56.50
12360;BME280;6244;51.460;7.090;2023-06-22T04:06:02;100750.63;;;22.64;57.23
12360;BME280;6244;51.460;7.090;2023-06-22T04:11:00;100744.97;;;22.67;56.94
12360;BME280;6244;51.460;7.090;2023-06-22T04:15:56;100753.56;;;22.78;56.42
12360;BME280;6244;51.460;7.090;2023-06-22T04:20:53;100762.25;;;22.90;56.86
12360;BME280;6244;51.460;7.090;2023-06-22T04:25:49;100754.84;;;22.84;56.73
12360;BME280;6244;51.460;7.090;2023-06-22T04:30:48;100752.13;;;22.66;57.29
12360;BME280;6244;51.460;7.090;2023-06-22T04:35:46;100764.28;;;22.78;57.16
12360;BME280;6244;51.460;7.090;2023-06-22T04:40:42;100765.38;;;22.85;57.40
12360;BME280;6244;51.460;7.090;2023-06-22T04:45:39;100762.03;;;22.83;57.36
12360;BME280;6244;51.460;7.090;2023-06-22T04:50:37;100760.47;;;22.63;57.83
12360;BME280;6244;51.460;7.090;2023-06-22T04:55:34;100754.41;;;22.79;58.27
12360;BME280;6244;51.460;7.090;2023-06-22T05:00:33;100751.53;;;22.90;57.99
12360;BME280;6244;51.460;7.090;2023-06-22T05:05:31;100755.69;;;22.84;58.31
12360;BME280;6244;51.460;7.090;2023-06-22T05:10:29;100759.03;;;22.87;58.83
12360;BME280;6244;51.460;7.090;2023-06-22T05:15:25;100756.22;;;22.88;59.05
12360;BME280;6244;51.460;7.090;2023-06-22T05:20:25;100769.94;;;22.75;59.33
12360;BME280;6244;51.460;7.090;2023-06-22T05:25:22;100752.75;;;22.78;59.47
12360;BME280;6244;51.460;7.090;2023-06-22T05:30:20;100757.34;;;22.68;59.23
12360;BME280;6244;51.460;7.090;2023-06-22T05:35:16;100761.78;;;22.59;59.88
12360;BME280;6244;51.460;7.090;2023-06-22T05:40:13;100762.38;;;22.53;60.92
12360;BME280;6244;51.460;7.090;2023-06-22T05:45:09;100754.66;;;22.68;60.68
12360;BME280;6244;51.460;7.090;2023-06-22T05:50:08;100766.50;;;22.65;59.68
12360;BME280;6244;51.460;7.090;2023-06-22T05:55:05;100778.34;;;22.80;60.21
12360;BME280;6244;51.460;7.090;2023-06-22T06:00:02;100783.28;;;22.85;59.29
12360;BME280;6244;51.460;7.090;2023-06-22T06:05:02;100776.09;;;22.85;59.52
12360;BME280;6244;51.460;7.090;2023-06-22T06:10:00;100786.38;;;22.80;59.59
12360;BME280;6244;51.460;7.090;2023-06-22T06:14:56;100780.28;;;22.88;59.01
12360;BME280;6244;51.460;7.090;2023-06-22T06:19:53;100776.28;;;22.92;58.95
12360;BME280;6244;51.460;7.090;2023-06-22T06:24:50;100773.94;;;22.89;59.87
12360;BME280;6244;51.460;7.090;2023-06-22T06:29:48;100768.28;;;22.92;60.94
12360;BME280;6244;51.460;7.090;2023-06-22T06:34:44;100761.84;;;23.03;61.29
12360;BME280;6244;51.460;7.090;2023-06-22T06:39:41;100766.09;;;23.13;60.95
12360;BME280;6244;51.460;7.090;2023-06-22T06:44:37;100776.38;;;23.26;60.65
12360;BME280;6244;51.460;7.090;2023-06-22T06:49:35;100765.09;;;23.40;59.79
12360;BME280;6244;51.460;7.090;2023-06-22T06:54:32;100771.59;;;23.38;59.46
12360;BME280;6244;51.460;7.090;2023-06-22T06:59:28;100771.13;;;23.17;59.25
12360;BME280;6244;51.460;7.090;2023-06-22T07:04:25;100758.91;;;23.14;59.39
12360;BME280;6244;51.460;7.090;2023-06-22T07:09:23;100753.03;;;23.10;59.09
12360;BME280;6244;51.460;7.090;2023-06-22T07:14:19;100746.78;;;23.02;59.20
12360;BME280;6244;51.460;7.090;2023-06-22T07:19:16;100735.31;;;22.92;58.46
12360;BME280;6244;51.460;7.090;2023-06-22T07:24:20;100756.47;;;23.03;59.20
12360;BME280;6244;51.460;7.090;2023-06-22T07:29:18;100754.22;;;23.16;59.44
12360;BME280;6244;51.460;7.090;2023-06-22T07:34:15;100759.38;;;23.35;59.42
12360;BME280;6244;51.460;7.090;2023-06-22T07:39:12;100751.44;;;23.26;59.23
12360;BME280;6244;51.460;7.090;2023-06-22T07:44:08;100740.22;;;22.96;62.93
12360;BME280;6244;51.460;7.090;2023-06-22T07:49:06;100721.94;;;22.74;64.30
12360;BME280;6244;51.460;7.090;2023-06-22T07:54:03;100724.41;;;22.67;65.09
12360;BME280;6244;51.460;7.090;2023-06-22T07:59:00;100730.16;;;22.37;65.65
12360;BME280;6244;51.460;7.090;2023-06-22T08:03:58;100720.38;;;22.27;66.91
12360;BME280;6244;51.460;7.090;2023-06-22T08:08:57;100698.13;;;22.27;68.86
12360;BME280;6244;51.460;7.090;2023-06-22T08:13:54;100680.91;;;22.21;69.84
12360;BME280;6244;51.460;7.090;2023-06-22T08:18:53;100680.09;;;22.29;69.51
12360;BME280;6244;51.460;7.090;2023-06-22T08:23:50;100679.97;;;22.48;69.50
12360;BME280;6244;51.460;7.090;2023-06-22T08:28:57;100663.69;;;22.42;71.69
12360;BME280;6244;51.460;7.090;2023-06-22T08:33:54;100643.13;;;22.42;71.34
12360;BME280;6244;51.460;7.090;2023-06-22T08:38:50;100645.19;;;22.48;67.48
12360;BME280;6244;51.460;7.090;2023-06-22T08:43:50;100633.59;;;22.66;67.06
12360;BME280;6244;51.460;7.090;2023-06-22T08:48:46;100649.75;;;22.82;67.21
12360;BME280;6244;51.460;7.090;2023-06-22T08:53:43;100655.44;;;23.05;66.62
12360;BME280;6244;51.460;7.090;2023-06-22T08:58:40;100642.13;;;23.13;64.84
12360;BME280;6244;51.460;7.090;2023-06-22T09:03:38;100644.84;;;23.29;64.50
12360;BME280;6244;51.460;7.090;2023-06-22T09:08:35;100634.13;;;23.21;64.58
12360;BME280;6244;51.460;7.090;2023-06-22T09:13:32;100631.84;;;23.42;63.77
12360;BME280;6244;51.460;7.090;2023-06-22T09:18:33;100627.47;;;23.76;63.92
12360;BME280;6244;51.460;7.090;2023-06-22T09:23:34;100635.25;;;24.19;62.12
12360;BME280;6244;51.460;7.090;2023-06-22T09:28:31;100628.34;;;24.74;60.93
12360;BME280;6244;51.460;7.090;2023-06-22T09:33:28;100616.75;;;25.76;57.77
12360;BME280;6244;51.460;7.090;2023-06-22T09:38:25;100604.91;;;26.31;55.44
12360;BME280;6244;51.460;7.090;2023-06-22T09:43:23;100601.50;;;27.19;54.19
12360;BME280;6244;51.460;7.090;2023-06-22T09:48:19;100605.97;;;27.12;53.36
12360;BME280;6244;51.460;7.090;2023-06-22T09:53:16;100619.25;;;26.23;54.73
12360;BME280;6244;51.460;7.090;2023-06-22T09:58:13;100603.31;;;25.76;56.28
12360;BME280;6244;51.460;7.090;2023-06-22T10:03:11;100586.28;;;26.07;56.78
12360;BME280;6244;51.460;7.090;2023-06-22T10:08:08;100574.91;;;26.19;55.60
12360;BME280;6244;51.460;7.090;2023-06-22T10:13:10;100574.19;;;26.02;55.54
12360;BME280;6244;51.460;7.090;2023-06-22T10:18:21;100563.50;;;26.17;55.95
12360;BME280;6244;51.460;7.090;2023-06-22T10:23:26;100555.34;;;26.92;53.60
12360;BME280;6244;51.460;7.090;2023-06-22T10:28:24;100551.25;;;26.82;54.17
12360;BME280;6244;51.460;7.090;2023-06-22T10:33:23;100550.78;;;26.63;54.70
12360;BME280;6244;51.460;7.090;2023-06-22T10:38:21;100552.09;;;27.12;53.31
12360;BME280;6244;51.460;7.090;2023-06-22T10:43:19;100547.09;;;26.79;53.37
12360;BME280;6244;51.460;7.090;2023-06-22T10:48:19;100545.91;;;26.29;54.86
12360;BME280;6244;51.460;7.090;2023-06-22T10:53:21;100546.22;;;25.74;56.56
12360;BME280;6244;51.460;7.090;2023-06-22T10:58:20;100553.81;;;25.62;57.73
12360;BME280;6244;51.460;7.090;2023-06-22T11:03:21;100573.25;;;25.41;57.51
12360;BME280;6244;51.460;7.090;2023-06-22T11:08:21;100595.44;;;25.35;59.01
12360;BME280;6244;51.460;7.090;2023-06-22T11:13:18;100594.53;;;25.20;58.28
12360;BME280;6244;51.460;7.090;2023-06-22T11:18:15;100589.00;;;25.13;59.86
12360;BME280;6244;51.460;7.090;2023-06-22T11:23:12;100591.56;;;25.07;62.60
12360;BME280;6244;51.460;7.090;2023-06-22T11:28:10;100588.75;;;24.76;66.66
12360;BME280;6244;51.460;7.090;2023-06-22T11:33:07;100597.03;;;24.50;68.32
12360;BME280;6244;51.460;7.090;2023-06-22T11:38:04;100597.69;;;23.95;72.63
12360;BME280;6244;51.460;7.090;2023-06-22T11:43:01;100600.66;;;22.83;80.05
12360;BME280;6244;51.460;7.090;2023-06-22T11:47:59;100608.31;;;22.34;84.23
12360;BME280;6244;51.460;7.090;2023-06-22T11:52:55;100602.75;;;21.74;87.16
12360;BME280;6244;51.460;7.090;2023-06-22T11:57:54;100592.53;;;21.42;89.54
12360;BME280;6244;51.460;7.090;2023-06-22T12:02:51;100570.34;;;21.42;91.93
12360;BME280;6244;51.460;7.090;2023-06-22T12:07:50;100536.19;;;21.81;91.79
12360;BME280;6244;51.460;7.090;2023-06-22T12:12:46;100525.16;;;22.02;90.79
12360;BME280;6244;51.460;7.090;2023-06-22T12:17:43;100519.13;;;22.17;90.22
12360;BME280;6244;51.460;7.090;2023-06-22T12:22:40;100513.50;;;22.20;88.98
12360;BME280;6244;51.460;7.090;2023-06-22T12:27:38;100497.34;;;22.30;88.69
12360;BME280;6244;51.460;7.090;2023-06-22T12:32:35;100469.59;;;22.31;87.01
12360;BME280;6244;51.460;7.090;2023-06-22T12:37:31;100431.66;;;22.02;87.10
12360;BME280;6244;51.460;7.090;2023-06-22T12:42:29;100427.91;;;21.94;87.51
12360;BME280;6244;51.460;7.090;2023-06-22T12:47:27;100448.84;;;21.99;86.26
12360;BME280;6244;51.460;7.090;2023-06-22T12:52:23;100430.59;;;21.94;87.40
12360;BME280;6244;51.460;7.090;2023-06-22T12:57:20;100409.75;;;21.98;87.73
12360;BME280;6244;51.460;7.090;2023-06-22T13:02:16;100405.31;;;22.07;87.10
12360;BME280;6244;51.460;7.090;2023-06-22T13:07:14;100404.88;;;22.19;86.90
12360;BME280;6244;51.460;7.090;2023-06-22T13:12:11;100413.31;;;22.33;87.30
12360;BME280;6244;51.460;7.090;2023-06-22T13:17:07;100406.69;;;22.45;87.53
12360;BME280;6244;51.460;7.090;2023-06-22T13:22:30;100396.22;;;22.60;87.64
12360;BME280;6244;51.460;7.090;2023-06-22T13:27:27;100406.59;;;22.63;86.86
12360;BME280;6244;51.460;7.090;2023-06-22T13:32:23;100422.63;;;22.63;85.75
12360;BME280;6244;51.460;7.090;2023-06-22T13:37:20;100399.72;;;22.68;84.82
12360;BME280;6244;51.460;7.090;2023-06-22T13:42:18;100412.91;;;22.53;86.05
12360;BME280;6244;51.460;7.090;2023-06-22T13:47:18;100399.03;;;22.50;86.45
12360;BME280;6244;51.460;7.090;2023-06-22T13:52:16;100377.66;;;22.58;86.10
12360;BME280;6244;51.460;7.090;2023-06-22T13:57:12;100375.63;;;22.52;85.33
12360;BME280;6244;51.460;7.090;2023-06-22T14:02:12;100363.78;;;22.63;85.99
12360;BME280;6244;51.460;7.090;2023-06-22T14:07:09;100358.78;;;22.68;85.76
12360;BME280;6244;51.460;7.090;2023-06-22T14:12:06;100366.97;;;22.66;84.87
12360;BME280;6244;51.460;7.090;2023-06-22T14:17:03;100347.53;;;22.56;85.66
12360;BME280;6244;51.460;7.090;2023-06-22T14:22:02;100338.38;;;22.59;85.33
12360;BME280;6244;51.460;7.090;2023-06-22T14:26:58;100328.81;;;22.56;84.92
12360;BME280;6244;51.460;7.090;2023-06-22T14:31:57;100332.00;;;22.51;84.69
12360;BME280;6244;51.460;7.090;2023-06-22T14:36:55;100341.69;;;22.52;84.48
12360;BME280;6244;51.460;7.090;2023-06-22T14:41:56;100331.03;;;22.61;83.65
12360;BME280;6244;51.460;7.090;2023-06-22T14:46:52;100298.75;;;22.46;82.81
12360;BME280;6244;51.460;7.090;2023-06-22T14:51:49;100292.72;;;22.52;82.54
12360;BME280;6244;51.460;7.090;2023-06-22T14:56:47;100308.22;;;22.40;83.37
12360;BME280;6244;51.460;7.090;2023-06-22T15:01:45;100279.69;;;22.49;82.87
12360;BME280;6244;51.460;7.090;2023-06-22T15:06:42;100216.16;;;22.26;85.42
12360;BME280;6244;51.460;7.090;2023-06-22T15:11:39;100215.03;;;21.95;88.34
12360;BME280;6244;51.460;7.090;2023-06-22T15:16:36;100212.06;;;21.98;89.23
12360;BME280;6244;51.460;7.090;2023-06-22T15:21:35;100216.03;;;21.94;88.22
12360;BME280;6244;51.460;7.090;2023-06-22T15:26:38;100238.56;;;21.91;88.16
12360;BME280;6244;51.460;7.090;2023-06-22T15:31:34;100233.09;;;22.01;87.38
12360;BME280;6244;51.460;7.090;2023-06-22T15:36:31;100204.13;;;21.80;88.82
12360;BME280;6244;51.460;7.090;2023-06-22T15:41:33;100202.78;;;21.76;88.52
12360;BME280;6244;51.460;7.090;2023-06-22T15:46:30;100238.38;;;21.51;88.07
12360;BME280;6244;51.460;7.090;2023-06-22T15:51:26;100305.91;;;21.43;86.90
12360;BME280;6244;51.460;7.090;2023-06-22T15:56:25;100217.63;;;20.93;88.89
12360;BME280;6244;51.460;7.090;2023-06-22T16:01:29;100210.91;;;20.63;90.37
12360;BME280;6244;51.460;7.090;2023-06-22T16:06:27;100204.81;;;20.52;90.24
12360;BME280;6244;51.460;7.090;2023-06-22T16:11:23;100209.38;;;20.24;91.14
12360;BME280;6244;51.460;7.090;2023-06-22T16:16:20;100205.44;;;20.01;93.61
12360;BME280;6244;51.460;7.090;2023-06-22T16:21:21;100207.97;;;20.20;93.36
12360;BME280;6244;51.460;7.090;2023-06-22T16:26:17;100175.41;;;20.27;92.51
12360;BME280;6244;51.460;7.090;2023-06-22T16:31:15;100160.25;;;20.27;92.11
12360;BME280;6244;51.460;7.090;2023-06-22T16:36:11;100147.25;;;20.24;92.03
12360;BME280;6244;51.460;7.090;2023-06-22T16:41:10;100152.19;;;20.19;92.04
12360;BME280;6244;51.460;7.090;2023-06-22T16:46:07;100159.41;;;20.27;91.75
12360;BME280;6244;51.460;7.090;2023-06-22T16:51:04;100132.63;;;20.28;90.81
12360;BME280;6244;51.460;7.090;2023-06-22T16:56:01;100128.66;;;20.14;91.31
12360;BME280;6244;51.460;7.090;2023-06-22T17:01:03;100122.34;;;20.15;91.32
12360;BME280;6244;51.460;7.090;2023-06-22T17:06:04;100129.88;;;20.20;91.18
12360;BME280;6244;51.460;7.090;2023-06-22T17:11:01;100098.22;;;20.17;90.60
12360;BME280;6244;51.460;7.090;2023-06-22T17:16:00;100100.78;;;20.09;91.18
12360;BME280;6244;51.460;7.090;2023-06-22T17:20:58;100099.59;;;20.03;91.23
12360;BME280;6244;51.460;7.090;2023-06-22T17:25:55;100093.44;;;20.03;90.59
12360;BME280;6244;51.460;7.090;2023-06-22T17:31:10;100095.72;;;20.15;90.74
12360;BME280;6244;51.460;7.090;2023-06-22T17:36:12;100083.97;;;20.08;90.84
12360;BME280;6244;51.460;7.090;2023-06-22T17:41:09;100097.63;;;20.05;90.58
12360;BME280;6244;51.460;7.090;2023-06-22T17:46:06;100089.31;;;20.08;91.03
12360;BME280;6244;51.460;7.090;2023-06-22T17:51:04;100087.94;;;20.04;90.57
12360;BME280;6244;51.460;7.090;2023-06-22T17:56:01;100080.41;;;20.17;90.78
12360;BME280;6244;51.460;7.090;2023-06-22T18:00:58;100077.06;;;20.15;90.07
12360;BME280;6244;51.460;7.090;2023-06-22T18:05:55;100077.97;;;20.06;89.29
12360;BME280;6244;51.460;7.090;2023-06-22T18:10:53;100072.44;;;20.00;90.35
12360;BME280;6244;51.460;7.090;2023-06-22T18:15:52;100074.13;;;20.01;90.37
12360;BME280;6244;51.460;7.090;2023-06-22T18:20:50;100062.19;;;19.87;90.90
12360;BME280;6244;51.460;7.090;2023-06-22T18:25:51;100068.41;;;19.78;91.39
12360;BME280;6244;51.460;7.090;2023-06-22T18:30:50;100051.50;;;19.69;92.01
12360;BME280;6244;51.460;7.090;2023-06-22T18:35:50;100031.03;;;19.70;91.90
12360;BME280;6244;51.460;7.090;2023-06-22T18:40:49;100032.13;;;19.77;92.30
12360;BME280;6244;51.460;7.090;2023-06-22T18:45:46;100031.34;;;19.67;92.45
12360;BME280;6244;51.460;7.090;2023-06-22T18:50:45;100020.03;;;19.64;92.81
12360;BME280;6244;51.460;7.090;2023-06-22T18:55:43;100020.09;;;19.55;92.82
12360;BME280;6244;51.460;7.090;2023-06-22T19:00:40;100023.59;;;19.55;92.83
12360;BME280;6244;51.460;7.090;2023-06-22T19:05:38;100016.53;;;19.64;92.24
12360;BME280;6244;51.460;7.090;2023-06-22T19:10:40;100029.19;;;19.52;93.05
12360;BME280;6244;51.460;7.090;2023-06-22T19:15:38;100042.75;;;19.59;93.19
12360;BME280;6244;51.460;7.090;2023-06-22T19:20:37;100038.84;;;19.35;93.00
12360;BME280;6244;51.460;7.090;2023-06-22T19:25:36;100040.56;;;19.27;94.15
12360;BME280;6244;51.460;7.090;2023-06-22T19:30:36;100036.22;;;19.26;94.92
12360;BME280;6244;51.460;7.090;2023-06-22T19:35:40;100042.09;;;19.29;94.90
12360;BME280;6244;51.460;7.090;2023-06-22T19:40:41;100051.78;;;19.21;95.20
12360;BME280;6244;51.460;7.090;2023-06-22T19:45:51;100063.81;;;19.25;95.38
12360;BME280;6244;51.460;7.090;2023-06-22T19:50:49;100051.09;;;19.19;95.61
12360;BME280;6244;51.460;7.090;2023-06-22T19:55:47;100055.56;;;19.18;96.26
12360;BME280;6244;51.460;7.090;2023-06-22T20:00:44;100067.22;;;19.17;96.66
12360;BME280;6244;51.460;7.090;2023-06-22T20:05:49;100074.41;;;18.97;95.87
12360;BME280;6244;51.460;7.090;2023-06-22T20:10:45;100075.78;;;18.74;95.43
12360;BME280;6244;51.460;7.090;2023-06-22T20:15:42;100069.06;;;18.60;95.21
12360;BME280;6244;51.460;7.090;2023-06-22T20:20:42;100104.63;;;18.40;95.35
12360;BME280;6244;51.460;7.090;2023-06-22T20:25:41;100101.00;;;18.31;94.54
12360;BME280;6244;51.460;7.090;2023-06-22T20:35:55;100088.03;;;17.99;94.56
12360;BME280;6244;51.460;7.090;2023-06-22T20:40:54;100099.75;;;17.87;94.18
12360;BME280;6244;51.460;7.090;2023-06-22T20:45:51;100110.38;;;17.87;94.55
12360;BME280;6244;51.460;7.090;2023-06-22T20:50:49;100123.97;;;17.53;93.91
12360;BME280;6244;51.460;7.090;2023-06-22T20:55:46;100144.78;;;17.58;94.64
12360;BME280;6244;51.460;7.090;2023-06-22T21:00:44;100161.78;;;17.46;95.75
12360;BME280;6244;51.460;7.090;2023-06-22T21:05:40;100185.06;;;17.42;96.03
12360;BME280;6244;51.460;7.090;2023-06-22T21:10:37;100224.25;;;17.29;94.41
12360;BME280;6244;51.460;7.090;2023-06-22T21:15:34;100230.78;;;17.25;94.32
12360;BME280;6244;51.460;7.090;2023-06-22T21:20:34;100234.72;;;17.10;93.78
12360;BME280;6244;51.460;7.090;2023-06-22T21:25:31;100241.13;;;17.07;94.63
12360;BME280;6244;51.460;7.090;2023-06-22T21:30:29;100244.50;;;17.09;94.06
12360;BME280;6244;51.460;7.090;2023-06-22T21:35:25;100258.34;;;17.13;94.29
12360;BME280;6244;51.460;7.090;2023-06-22T21:40:23;100278.91;;;17.20;94.12
12360;BME280;6244;51.460;7.090;2023-06-22T21:45:20;100293.03;;;17.10;94.74
12360;BME280;6244;51.460;7.090;2023-06-22T21:50:16;100299.41;;;17.18;94.81
12360;BME280;6244;51.460;7.090;2023-06-22T21:55:13;100322.03;;;17.22;94.98
12360;BME280;6244;51.460;7.090;2023-06-22T22:00:11;100338.28;;;17.29;93.62
12360;BME280;6244;51.460;7.090;2023-06-22T22:05:08;100361.63;;;17.14;93.72
12360;BME280;6244;51.460;7.090;2023-06-22T22:10:05;100368.91;;;17.22;93.34
12360;BME280;6244;51.460;7.090;2023-06-22T22:15:03;100378.28;;;17.05;93.21
12360;BME280;6244;51.460;7.090;2023-06-22T22:20:03;100404.25;;;17.11;93.45
12360;BME280;6244;51.460;7.090;2023-06-22T22:25:01;100417.38;;;17.24;92.96
12360;BME280;6244;51.460;7.090;2023-06-22T22:29:57;100439.31;;;17.26;92.82
12360;BME280;6244;51.460;7.090;2023-06-22T22:34:54;100437.06;;;17.10;92.83
12360;BME280;6244;51.460;7.090;2023-06-22T22:39:51;100436.72;;;17.03;92.77
12360;BME280;6244;51.460;7.090;2023-06-22T22:44:48;100435.63;;;17.06;93.38
12360;BME280;6244;51.460;7.090;2023-06-22T22:49:45;100445.13;;;17.09;92.64
12360;BME280;6244;51.460;7.090;2023-06-22T22:54:41;100426.75;;;16.96;92.50
12360;BME280;6244;51.460;7.090;2023-06-22T22:59:40;100437.00;;;17.00;93.50
12360;BME280;6244;51.460;7.090;2023-06-22T23:04:38;100445.53;;;16.93;92.68
12360;BME280;6244;51.460;7.090;2023-06-22T23:09:35;100456.03;;;16.94;93.30
12360;BME280;6244;51.460;7.090;2023-06-22T23:14:31;100474.44;;;16.96;93.45
12360;BME280;6244;51.460;7.090;2023-06-22T23:19:29;100472.44;;;16.88;93.49
12360;BME280;6244;51.460;7.090;2023-06-22T23:24:28;100476.50;;;16.92;92.86
12360;BME280;6244;51.460;7.090;2023-06-22T23:29:25;100467.47;;;16.95;92.75
12360;BME280;6244;51.460;7.090;2023-06-22T23:34:22;100469.28;;;16.83;92.50
12360;BME280;6244;51.460;7.090;2023-06-22T23:39:19;100461.97;;;16.87;93.19
12360;BME280;6244;51.460;7.090;2023-06-22T23:44:16;100488.22;;;16.79;92.59
12360;BME280;6244;51.460;7.090;2023-06-22T23:49:13;100506.91;;;16.77;92.21
12360;BME280;6244;51.460;7.090;2023-06-22T23:54:09;100548.31;;;16.78;92.80
12360;BME280;6244;51.460;7.090;2023-06-22T23:59:07;100557.59;;;16.72;92.69
